sensor_id;sensor_type;location;lat;lon;timestamp;temperature;humidity
69543;SHT31;56762;49.494;11.768;2024-01-15T00:02:20;-1.38;79.44
69543;SHT31;56762;49.494;11.768;2024-01-15T00:04:48;-1.43;77.43
69543;SHT31;56762;49.494;11.768;2024-01-15T00:07:16;-1.51;78.81
69543;SHT31;56762;49.494;11.768;2024-01-15T00:09:43;-1.58;79.67
69543;SHT31;56762;49.494;11.768;2024-01-15T00:12:13;-1.52;78.85
69543;SHT31;56762;49.494;11.768;2024-01-15T00:14:41;-1.52;81.11
69543;SHT31;56762;49.494;11.768;2024-01-15T00:17:09;-1.78;79.01
69543;SHT31;56762;49.494;11.768;2024-01-15T00:19:36;-1.78;80.10
69543;SHT31;56762;49.494;11.768;2024-01-15T00:22:04;-1.79;79.54
69543;SHT31;56762;49.494;11.768;2024-01-15T00:24:32;-1.83;79.26
69543;SHT31;56762;49.494;11.768;2024-01-15T00:26:59;-1.82;78.01
69543;SHT31;56762;49.494;11.768;2024-01-15T00:29:28;-1.76;79.14
69543;SHT31;56762;49.494;11.768;2024-01-15T00:31:56;-1.79;79.16
69543;SHT31;56762;49.494;11.768;2024-01-15T00:34:24;-1.81;78.08
69543;SHT31;56762;49.494;11.768;2024-01-15T00:36:52;-1.71;81.05
69543;SHT31;56762;49.494;11.768;2024-01-15T00:39:19;-1.72;79.07
69543;SHT31;56762;49.494;11.768;2024-01-15T00:41:47;-1.75;79.22
69543;SHT31;56762;49.494;11.768;2024-01-15T00:44:15;-1.72;78.95
69543;SHT31;56762;49.494;11.768;2024-01-15T00:46:45;-1.65;79.32
69543;SHT31;56762;49.494;11.768;2024-01-15T00:49:13;-1.76;79.53
69543;SHT31;56762;49.494;11.768;2024-01-15T00:51:41;-1.59;81.68
69543;SHT31;56762;49.494;11.768;2024-01-15T00:54:09;-1.58;79.82
69543;SHT31;56762;49.494;11.768;2024-01-15T00:56:37;-1.69;78.80
69543;SHT31;56762;49.494;11.768;2024-01-15T00:59:05;-1.71;79.78
69543;SHT31;56762;49.494;11.768;2024-01-15T01:01:34;-1.69;79.77
69543;SHT31;56762;49.494;11.768;2024-01-15T01:04:03;-1.74;78.87
69543;SHT31;56762;49.494;11.768;2024-01-15T01:06:31;-1.71;80.18
69543;SHT31;56762;49.494;11.768;2024-01-15T01:09:00;-1.56;81.40
69543;SHT31;56762;49.494;11.768;2024-01-15T01:11:27;-1.56;79.67
69543;SHT31;56762;49.494;11.768;2024-01-15T01:13:55;-1.56;80.13
69543;SHT31;56762;49.494;11.768;2024-01-15T01:16:23;-1.61;78.63
69543;SHT31;56762;49.494;11.768;2024-01-15T01:18:51;-1.75;79.59
69543;SHT31;56762;49.494;11.768;2024-01-15T01:21:21;-1.61;81.55
69543;SHT31;56762;49.494;11.768;2024-01-15T01:23:49;-1.54;80.18
69543;SHT31;56762;49.494;11.768;2024-01-15T01:26:17;-1.54;79.21
69543;SHT31;56762;49.494;11.768;2024-01-15T01:28:44;-1.54;79.55
69543;SHT31;56762;49.494;11.768;2024-01-15T01:31:12;-1.56;79.38
69543;SHT31;56762;49.494;11.768;2024-01-15T01:33:40;-1.58;80.06
69543;SHT31;56762;49.494;11.768;2024-01-15T01:36:09;-1.64;78.89
69543;SHT31;56762;49.494;11.768;2024-01-15T01:38:39;-1.69;78.53
69543;SHT31;56762;49.494;11.768;2024-01-15T01:41:07;-1.64;79.87
69543;SHT31;56762;49.494;11.768;2024-01-15T01:43:35;-1.59;80.08
69543;SHT31;56762;49.494;11.768;2024-01-15T01:46:03;-1.61;79.38
69543;SHT31;56762;49.494;11.768;2024-01-15T01:48:32;-1.54;79.98
69543;SHT31;56762;49.494;11.768;2024-01-15T01:51:02;-1.55;80.56
69543;SHT31;56762;49.494;11.768;2024-01-15T01:53:32;-1.52;80.20
69543;SHT31;56762;49.494;11.768;2024-01-15T01:56:04;-1.51;80.57
69543;SHT31;56762;49.494;11.768;2024-01-15T01:58:33;-1.55;79.84
69543;SHT31;56762;49.494;11.768;2024-01-15T02:01:01;-1.45;80.05
69543;SHT31;56762;49.494;11.768;2024-01-15T02:03:30;-1.50;79.27
69543;SHT31;56762;49.494;11.768;2024-01-15T02:05:59;-1.52;79.86
69543;SHT31;56762;49.494;11.768;2024-01-15T02:08:27;-1.35;81.39
69543;SHT31;56762;49.494;11.768;2024-01-15T02:10:55;-1.30;80.62
69543;SHT31;56762;49.494;11.768;2024-01-15T02:13:24;-1.31;79.39
69543;SHT31;56762;49.494;11.768;2024-01-15T02:15:52;-1.34;79.42
69543;SHT31;56762;49.494;11.768;2024-01-15T02:18:20;-1.33;79.70
69543;SHT31;56762;49.494;11.768;2024-01-15T02:20:48;-1.30;80.09
69543;SHT31;56762;49.494;11.768;2024-01-15T02:23:17;-1.37;79.69
69543;SHT31;56762;49.494;11.768;2024-01-15T02:25:46;-1.43;80.10
69543;SHT31;56762;49.494;11.768;2024-01-15T02:28:16;-1.40;80.85
69543;SHT31;56762;49.494;11.768;2024-01-15T02:30:44;-1.35;80.76
69543;SHT31;56762;49.494;11.768;2024-01-15T02:33:13;-1.40;80.02
69543;SHT31;56762;49.494;11.768;2024-01-15T02:35:41;-1.47;80.39
69543;SHT31;56762;49.494;11.768;2024-01-15T02:38:09;-1.47;80.97
69543;SHT31;56762;49.494;11.768;2024-01-15T02:40:38;-1.45;81.21
69543;SHT31;56762;49.494;11.768;2024-01-15T02:43:06;-1.44;81.39
69543;SHT31;56762;49.494;11.768;2024-01-15T02:45:34;-1.47;81.09
69543;SHT31;56762;49.494;11.768;2024-01-15T02:48:02;-1.37;81.18
69543;SHT31;56762;49.494;11.768;2024-01-15T02:50:30;-1.24;82.38
69543;SHT31;56762;49.494;11.768;2024-01-15T02:52:58;-1.28;81.04
69543;SHT31;56762;49.494;11.768;2024-01-15T02:55:26;-1.28;80.46
69543;SHT31;56762;49.494;11.768;2024-01-15T02:57:57;-1.31;81.06
69543;SHT31;56762;49.494;11.768;2024-01-15T03:00:25;-1.25;81.57
69543;SHT31;56762;49.494;11.768;2024-01-15T03:02:54;-1.24;80.89
69543;SHT31;56762;49.494;11.768;2024-01-15T03:05:22;-1.27;81.07
69543;SHT31;56762;49.494;11.768;2024-01-15T03:07:50;-1.18;81.41
69543;SHT31;56762;49.494;11.768;2024-01-15T03:10:18;-1.25;80.48
69543;SHT31;56762;49.494;11.768;2024-01-15T03:12:46;-1.23;80.81
69543;SHT31;56762;49.494;11.768;2024-01-15T03:15:16;-1.25;81.22
69543;SHT31;56762;49.494;11.768;2024-01-15T03:17:44;-1.08;82.33
69543;SHT31;56762;49.494;11.768;2024-01-15T03:20:12;-1.04;82.25
69543;SHT31;56762;49.494;11.768;2024-01-15T03:22:40;-1.14;80.67
69543;SHT31;56762;49.494;11.768;2024-01-15T03:25:08;-1.14;81.16
69543;SHT31;56762;49.494;11.768;2024-01-15T03:27:36;-1.13;80.69
69543;SHT31;56762;49.494;11.768;2024-01-15T03:30:05;-1.04;81.83
69543;SHT31;56762;49.494;11.768;2024-01-15T03:32:34;-1.06;81.30
69543;SHT31;56762;49.494;11.768;2024-01-15T03:35:02;-1.08;81.22
69543;SHT31;56762;49.494;11.768;2024-01-15T03:37:30;-1.10;81.07
69543;SHT31;56762;49.494;11.768;2024-01-15T03:39:58;-1.11;81.56
69543;SHT31;56762;49.494;11.768;2024-01-15T03:42:26;-1.18;81.35
69543;SHT31;56762;49.494;11.768;2024-01-15T03:44:54;-1.25;80.74
69543;SHT31;56762;49.494;11.768;2024-01-15T03:47:21;-1.30;81.30
69543;SHT31;56762;49.494;11.768;2024-01-15T03:49:51;-1.15;81.89
69543;SHT31;56762;49.494;11.768;2024-01-15T03:52:19;-1.14;81.35
69543;SHT31;56762;49.494;11.768;2024-01-15T03:54:46;-1.18;80.06
69543;SHT31;56762;49.494;11.768;2024-01-15T03:57:14;-1.24;80.75
69543;SHT31;56762;49.494;11.768;2024-01-15T03:59:42;-1.20;81.13
69543;SHT31;56762;49.494;11.768;2024-01-15T04:02:11;-1.27;80.85
69543;SHT31;56762;49.494;11.768;2024-01-15T04:04:40;-1.30;81.06
69543;SHT31;56762;49.494;11.768;2024-01-15T04:07:10;-1.28;80.85
69543;SHT31;56762;49.494;11.768;2024-01-15T04:09:38;-1.30;81.47
69543;SHT31;56762;49.494;11.768;2024-01-15T04:12:06;-1.24;81.06
69543;SHT31;56762;49.494;11.768;2024-01-15T04:14:34;-1.27;80.52
69543;SHT31;56762;49.494;11.768;2024-01-15T04:17:02;-1.33;80.91
69543;SHT31;56762;49.494;11.768;2024-01-15T04:19:29;-1.27;81.12
69543;SHT31;56762;49.494;11.768;2024-01-15T04:21:57;-1.15;81.99
69543;SHT31;56762;49.494;11.768;2024-01-15T04:24:25;-1.20;81.16
69543;SHT31;56762;49.494;11.768;2024-01-15T04:26:53;-1.24;81.48
69543;SHT31;56762;49.494;11.768;2024-01-15T04:29:21;-1.23;81.46
69543;SHT31;56762;49.494;11.768;2024-01-15T04:31:49;-1.23;81.39
69543;SHT31;56762;49.494;11.768;2024-01-15T04:34:17;-1.13;82.01
69543;SHT31;56762;49.494;11.768;2024-01-15T04:36:45;-1.08;81.76
69543;SHT31;56762;49.494;11.768;2024-01-15T04:39:12;-1.04;82.21
69543;SHT31;56762;49.494;11.768;2024-01-15T04:41:42;-1.04;81.61
69543;SHT31;56762;49.494;11.768;2024-01-15T04:44:09;-0.96;82.21
69543;SHT31;56762;49.494;11.768;2024-01-15T04:46:37;-1.01;81.37
69543;SHT31;56762;49.494;11.768;2024-01-15T04:49:05;-0.97;82.09
69543;SHT31;56762;49.494;11.768;2024-01-15T04:51:34;-0.94;81.50
69543;SHT31;56762;49.494;11.768;2024-01-15T04:54:02;-0.97;81.61
69543;SHT31;56762;49.494;11.768;2024-01-15T04:56:30;-0.94;81.80
69543;SHT31;56762;49.494;11.768;2024-01-15T04:58:59;-0.96;82.04
69543;SHT31;56762;49.494;11.768;2024-01-15T05:01:30;-0.96;81.93
69543;SHT31;56762;49.494;11.768;2024-01-15T05:03:58;-0.93;81.65
69543;SHT31;56762;49.494;11.768;2024-01-15T05:06:27;-0.84;82.07
69543;SHT31;56762;49.494;11.768;2024-01-15T05:08:54;-0.92;81.11
69543;SHT31;56762;49.494;11.768;2024-01-15T05:11:23;-0.96;81.71
69543;SHT31;56762;49.494;11.768;2024-01-15T05:13:50;-0.90;82.30
69543;SHT31;56762;49.494;11.768;2024-01-15T05:16:19;-0.92;81.49
69543;SHT31;56762;49.494;11.768;2024-01-15T05:18:47;-0.92;82.01
69543;SHT31;56762;49.494;11.768;2024-01-15T05:21:14;-0.79;82.80
69543;SHT31;56762;49.494;11.768;2024-01-15T05:23:42;-0.72;82.53
69543;SHT31;56762;49.494;11.768;2024-01-15T05:26:10;-0.68;81.91
69543;SHT31;56762;49.494;11.768;2024-01-15T05:28:38;-0.65;81.68
69543;SHT31;56762;49.494;11.768;2024-01-15T05:31:05;-0.63;82.13
69543;SHT31;56762;49.494;11.768;2024-01-15T05:33:35;-0.59;82.90
69543;SHT31;56762;49.494;11.768;2024-01-15T05:36:03;-0.61;82.41
69543;SHT31;56762;49.494;11.768;2024-01-15T05:38:30;-0.63;81.99
69543;SHT31;56762;49.494;11.768;2024-01-15T05:40:58;-0.68;81.85
69543;SHT31;56762;49.494;11.768;2024-01-15T05:43:26;-0.56;83.17
69543;SHT31;56762;49.494;11.768;2024-01-15T05:45:53;-0.53;82.29
69543;SHT31;56762;49.494;11.768;2024-01-15T05:48:21;-0.44;83.20
69543;SHT31;56762;49.494;11.768;2024-01-15T05:50:51;-0.42;82.37
69543;SHT31;56762;49.494;11.768;2024-01-15T05:53:19;-0.48;81.74
69543;SHT31;56762;49.494;11.768;2024-01-15T05:55:46;-0.44;82.25
69543;SHT31;56762;49.494;11.768;2024-01-15T05:58:14;-0.46;82.22
69543;SHT31;56762;49.494;11.768;2024-01-15T06:00:42;-0.48;81.46
69543;SHT31;56762;49.494;11.768;2024-01-15T06:03:10;-0.44;82.52
69543;SHT31;56762;49.494;11.768;2024-01-15T06:05:38;-0.45;81.42
69543;SHT31;56762;49.494;11.768;2024-01-15T06:08:07;-0.45;82.57
69543;SHT31;56762;49.494;11.768;2024-01-15T06:10:35;-0.44;81.64
69543;SHT31;56762;49.494;11.768;2024-01-15T06:13:03;-0.48;82.07
69543;SHT31;56762;49.494;11.768;2024-01-15T06:15:31;-0.49;82.27
69543;SHT31;56762;49.494;11.768;2024-01-15T06:17:59;-0.49;82.16
69543;SHT31;56762;49.494;11.768;2024-01-15T06:20:27;-0.49;82.17
69543;SHT31;56762;49.494;11.768;2024-01-15T06:22:55;-0.52;81.85
69543;SHT31;56762;49.494;11.768;2024-01-15T06:25:24;-0.49;82.09
69543;SHT31;56762;49.494;11.768;2024-01-15T06:27:52;-0.48;82.60
69543;SHT31;56762;49.494;11.768;2024-01-15T06:30:20;-0.42;82.88
69543;SHT31;56762;49.494;11.768;2024-01-15T06:32:48;-0.46;82.30
69543;SHT31;56762;49.494;11.768;2024-01-15T06:35:17;-0.32;83.75
69543;SHT31;56762;49.494;11.768;2024-01-15T06:37:48;-0.31;81.79
69543;SHT31;56762;49.494;11.768;2024-01-15T06:40:17;-0.34;83.09
69543;SHT31;56762;49.494;11.768;2024-01-15T06:42:46;-0.36;82.31
69543;SHT31;56762;49.494;11.768;2024-01-15T06:45:14;-0.41;83.17
69543;SHT31;56762;49.494;11.768;2024-01-15T06:47:41;-0.48;83.48
69543;SHT31;56762;49.494;11.768;2024-01-15T06:50:10;-0.44;83.89
69543;SHT31;56762;49.494;11.768;2024-01-15T06:52:38;-0.38;83.88
69543;SHT31;56762;49.494;11.768;2024-01-15T06:55:06;-0.34;83.81
69543;SHT31;56762;49.494;11.768;2024-01-15T06:57:35;-0.28;84.87
69543;SHT31;56762;49.494;11.768;2024-01-15T07:00:05;-0.41;83.78
69543;SHT31;56762;49.494;11.768;2024-01-15T07:02:35;-0.45;83.60
69543;SHT31;56762;49.494;11.768;2024-01-15T07:05:03;-0.51;83.69
69543;SHT31;56762;49.494;11.768;2024-01-15T07:07:31;-0.42;84.05
69543;SHT31;56762;49.494;11.768;2024-01-15T07:10:00;-0.45;83.48
69543;SHT31;56762;49.494;11.768;2024-01-15T07:12:27;-0.36;84.52
69543;SHT31;56762;49.494;11.768;2024-01-15T07:14:56;-0.34;84.22
69543;SHT31;56762;49.494;11.768;2024-01-15T07:17:25;-0.31;83.89
69543;SHT31;56762;49.494;11.768;2024-01-15T07:19:53;-0.31;83.65
69543;SHT31;56762;49.494;11.768;2024-01-15T07:22:21;-0.22;83.28
69543;SHT31;56762;49.494;11.768;2024-01-15T07:24:49;-0.24;83.16
69543;SHT31;56762;49.494;11.768;2024-01-15T07:27:17;-0.25;83.44
69543;SHT31;56762;49.494;11.768;2024-01-15T07:29:45;-0.24;82.24
69543;SHT31;56762;49.494;11.768;2024-01-15T07:32:12;-0.24;82.83
69543;SHT31;56762;49.494;11.768;2024-01-15T07:34:42;-0.31;82.28
69543;SHT31;56762;49.494;11.768;2024-01-15T07:37:09;-0.28;82.84
69543;SHT31;56762;49.494;11.768;2024-01-15T07:39:38;-0.24;82.85
69543;SHT31;56762;49.494;11.768;2024-01-15T07:42:09;-0.28;82.90
69543;SHT31;56762;49.494;11.768;2024-01-15T07:44:37;-0.24;83.89
69543;SHT31;56762;49.494;11.768;2024-01-15T07:47:04;-0.28;82.33
69543;SHT31;56762;49.494;11.768;2024-01-15T07:49:33;-0.24;82.73
69543;SHT31;56762;49.494;11.768;2024-01-15T07:52:02;-0.26;82.52
69543;SHT31;56762;49.494;11.768;2024-01-15T07:54:32;-0.28;82.41
69543;SHT31;56762;49.494;11.768;2024-01-15T07:57:01;-0.26;83.45
69543;SHT31;56762;49.494;11.768;2024-01-15T07:59:30;-0.24;83.57
69543;SHT31;56762;49.494;11.768;2024-01-15T08:01:59;-0.18;83.93
69543;SHT31;56762;49.494;11.768;2024-01-15T08:04:27;-0.18;84.37
69543;SHT31;56762;49.494;11.768;2024-01-15T08:06:55;-0.18;84.56
69543;SHT31;56762;49.494;11.768;2024-01-15T08:09:25;-0.24;83.87
69543;SHT31;56762;49.494;11.768;2024-01-15T08:11:53;-0.26;85.06
69543;SHT31;56762;49.494;11.768;2024-01-15T08:14:21;-0.25;85.49
69543;SHT31;56762;49.494;11.768;2024-01-15T08:16:48;-0.24;85.57
69543;SHT31;56762;49.494;11.768;2024-01-15T08:19:17;-0.25;85.43
69543;SHT31;56762;49.494;11.768;2024-01-15T08:21:47;-0.22;85.90
69543;SHT31;56762;49.494;11.768;2024-01-15T08:24:15;-0.24;85.50
69543;SHT31;56762;49.494;11.768;2024-01-15T08:26:44;-0.18;85.68
69543;SHT31;56762;49.494;11.768;2024-01-15T08:29:13;-0.18;85.90
69543;SHT31;56762;49.494;11.768;2024-01-15T08:31:41;-0.10;86.05
69543;SHT31;56762;49.494;11.768;2024-01-15T08:34:09;-0.08;85.98
69543;SHT31;56762;49.494;11.768;2024-01-15T08:36:37;-0.07;86.32
69543;SHT31;56762;49.494;11.768;2024-01-15T08:39:05;-0.04;85.03
69543;SHT31;56762;49.494;11.768;2024-01-15T08:41:33;-0.05;84.99
69543;SHT31;56762;49.494;11.768;2024-01-15T08:44:03;0.02;85.24
69543;SHT31;56762;49.494;11.768;2024-01-15T08:46:30;0.00;84.79
69543;SHT31;56762;49.494;11.768;2024-01-15T08:48:58;0.05;84.80
69543;SHT31;56762;49.494;11.768;2024-01-15T08:51:26;0.07;84.38
69543;SHT31;56762;49.494;11.768;2024-01-15T08:53:55;0.03;83.99
69543;SHT31;56762;49.494;11.768;2024-01-15T08:56:23;0.06;84.25
69543;SHT31;56762;49.494;11.768;2024-01-15T08:58:51;0.10;83.52
69543;SHT31;56762;49.494;11.768;2024-01-15T09:01:20;0.09;84.54
69543;SHT31;56762;49.494;11.768;2024-01-15T09:03:48;0.10;84.69
69543;SHT31;56762;49.494;11.768;2024-01-15T09:06:16;0.09;84.28
69543;SHT31;56762;49.494;11.768;2024-01-15T09:08:44;0.13;85.24
69543;SHT31;56762;49.494;11.768;2024-01-15T09:11:12;0.20;85.36
69543;SHT31;56762;49.494;11.768;2024-01-15T09:13:40;0.28;84.93
69543;SHT31;56762;49.494;11.768;2024-01-15T09:16:07;0.36;85.19
69543;SHT31;56762;49.494;11.768;2024-01-15T09:18:37;0.30;84.51
69543;SHT31;56762;49.494;11.768;2024-01-15T09:21:05;0.36;85.75
69543;SHT31;56762;49.494;11.768;2024-01-15T09:23:33;0.38;85.51
69543;SHT31;56762;49.494;11.768;2024-01-15T09:26:02;0.41;85.71
69543;SHT31;56762;49.494;11.768;2024-01-15T09:28:30;0.44;85.35
69543;SHT31;56762;49.494;11.768;2024-01-15T09:30:58;0.44;84.13
69543;SHT31;56762;49.494;11.768;2024-01-15T09:33:26;0.47;84.19
69543;SHT31;56762;49.494;11.768;2024-01-15T09:35:56;0.50;83.73
69543;SHT31;56762;49.494;11.768;2024-01-15T09:38:24;0.54;84.53
69543;SHT31;56762;49.494;11.768;2024-01-15T09:40:52;0.62;83.68
69543;SHT31;56762;49.494;11.768;2024-01-15T09:43:20;0.69;83.98
69543;SHT31;56762;49.494;11.768;2024-01-15T09:45:49;0.81;84.34
69543;SHT31;56762;49.494;11.768;2024-01-15T09:48:17;0.81;83.47
69543;SHT31;56762;49.494;11.768;2024-01-15T09:50:45;0.84;83.76
69543;SHT31;56762;49.494;11.768;2024-01-15T09:53:15;0.93;83.56
69543;SHT31;56762;49.494;11.768;2024-01-15T09:55:43;1.05;84.12
69543;SHT31;56762;49.494;11.768;2024-01-15T09:58:10;1.13;83.57
69543;SHT31;56762;49.494;11.768;2024-01-15T10:00:39;1.16;83.24
69543;SHT31;56762;49.494;11.768;2024-01-15T10:03:10;1.13;84.24
69543;SHT31;56762;49.494;11.768;2024-01-15T10:05:38;1.08;83.02
69543;SHT31;56762;49.494;11.768;2024-01-15T10:08:07;1.08;83.53
69543;SHT31;56762;49.494;11.768;2024-01-15T10:10:36;1.09;83.70
69543;SHT31;56762;49.494;11.768;2024-01-15T10:13:04;1.03;83.23
69543;SHT31;56762;49.494;11.768;2024-01-15T10:15:34;0.98;83.21
69543;SHT31;56762;49.494;11.768;2024-01-15T10:18:03;0.99;84.30
69543;SHT31;56762;49.494;11.768;2024-01-15T10:20:32;0.87;83.86
69543;SHT31;56762;49.494;11.768;2024-01-15T10:23:00;0.82;84.11
69543;SHT31;56762;49.494;11.768;2024-01-15T10:25:29;0.69;84.79
69543;SHT31;56762;49.494;11.768;2024-01-15T10:28:03;0.71;84.42
69543;SHT31;56762;49.494;11.768;2024-01-15T10:30:32;0.64;85.30
69543;SHT31;56762;49.494;11.768;2024-01-15T10:33:01;0.58;84.75
69543;SHT31;56762;49.494;11.768;2024-01-15T10:35:30;0.58;84.90
69543;SHT31;56762;49.494;11.768;2024-01-15T10:37:58;0.67;85.63
69543;SHT31;56762;49.494;11.768;2024-01-15T10:40:26;0.68;84.35
69543;SHT31;56762;49.494;11.768;2024-01-15T10:42:54;0.60;84.28
69543;SHT31;56762;49.494;11.768;2024-01-15T10:45:24;0.67;84.75
69543;SHT31;56762;49.494;11.768;2024-01-15T10:47:53;0.64;82.89
69543;SHT31;56762;49.494;11.768;2024-01-15T10:50:25;0.58;84.11
69543;SHT31;56762;49.494;11.768;2024-01-15T10:52:53;0.51;83.51
69543;SHT31;56762;49.494;11.768;2024-01-15T10:55:23;0.48;84.91
69543;SHT31;56762;49.494;11.768;2024-01-15T10:57:52;0.50;84.42
69543;SHT31;56762;49.494;11.768;2024-01-15T11:00:21;0.65;85.22
69543;SHT31;56762;49.494;11.768;2024-01-15T11:02:51;0.69;85.21
69543;SHT31;56762;49.494;11.768;2024-01-15T11:05:22;0.72;84.70
69543;SHT31;56762;49.494;11.768;2024-01-15T11:07:50;0.72;84.57
69543;SHT31;56762;49.494;11.768;2024-01-15T11:10:38;0.81;83.99
69543;SHT31;56762;49.494;11.768;2024-01-15T11:13:09;0.87;85.02
69543;SHT31;56762;49.494;11.768;2024-01-15T11:15:59;0.89;84.22
69543;SHT31;56762;49.494;11.768;2024-01-15T11:18:30;0.93;84.40
69543;SHT31;56762;49.494;11.768;2024-01-15T11:21:23;1.00;84.23
69543;SHT31;56762;49.494;11.768;2024-01-15T11:23:53;1.08;83.25
69543;SHT31;56762;49.494;11.768;2024-01-15T11:26:31;1.05;83.25
69543;SHT31;56762;49.494;11.768;2024-01-15T11:29:01;1.02;83.16
69543;SHT31;56762;49.494;11.768;2024-01-15T11:32:02;1.02;83.68
69543;SHT31;56762;49.494;11.768;2024-01-15T11:34:56;1.03;82.84
69543;SHT31;56762;49.494;11.768;2024-01-15T11:37:27;1.00;83.20
69543;SHT31;56762;49.494;11.768;2024-01-15T11:40:03;1.05;83.70
69543;SHT31;56762;49.494;11.768;2024-01-15T11:42:31;1.08;83.82
69543;SHT31;56762;49.494;11.768;2024-01-15T11:45:00;1.08;84.00
69543;SHT31;56762;49.494;11.768;2024-01-15T11:50:34;1.12;83.85
69543;SHT31;56762;49.494;11.768;2024-01-15T11:53:09;1.02;81.77
69543;SHT31;56762;49.494;11.768;2024-01-15T11:55:43;1.08;83.75
69543;SHT31;56762;49.494;11.768;2024-01-15T11:58:12;1.23;83.64
69543;SHT31;56762;49.494;11.768;2024-01-15T12:00:40;1.32;82.84
69543;SHT31;56762;49.494;11.768;2024-01-15T12:03:09;1.32;82.03
69543;SHT31;56762;49.494;11.768;2024-01-15T12:05:39;1.39;83.54
69543;SHT31;56762;49.494;11.768;2024-01-15T12:08:08;1.44;83.17
69543;SHT31;56762;49.494;11.768;2024-01-15T12:10:39;1.35;83.00
69543;SHT31;56762;49.494;11.768;2024-01-15T12:13:10;1.25;82.39
69543;SHT31;56762;49.494;11.768;2024-01-15T12:15:40;1.26;83.10
69543;SHT31;56762;49.494;11.768;2024-01-15T12:18:09;1.23;83.45
69543;SHT31;56762;49.494;11.768;2024-01-15T12:20:40;1.15;83.31
69543;SHT31;56762;49.494;11.768;2024-01-15T12:23:09;1.20;84.25
69543;SHT31;56762;49.494;11.768;2024-01-15T12:25:37;1.30;85.27
69543;SHT31;56762;49.494;11.768;2024-01-15T12:28:06;1.39;84.29
69543;SHT31;56762;49.494;11.768;2024-01-15T12:30:34;1.43;82.85
69543;SHT31;56762;49.494;11.768;2024-01-15T12:33:04;1.42;83.30
69543;SHT31;56762;49.494;11.768;2024-01-15T12:35:33;1.42;83.70
69543;SHT31;56762;49.494;11.768;2024-01-15T12:38:03;1.39;83.62
69543;SHT31;56762;49.494;11.768;2024-01-15T12:40:32;1.36;83.69
69543;SHT31;56762;49.494;11.768;2024-01-15T12:43:03;1.37;84.17
69543;SHT31;56762;49.494;11.768;2024-01-15T12:45:31;1.28;84.07
69543;SHT31;56762;49.494;11.768;2024-01-15T12:47:59;1.36;84.80
69543;SHT31;56762;49.494;11.768;2024-01-15T12:50:28;1.22;84.32
69543;SHT31;56762;49.494;11.768;2024-01-15T12:52:55;1.23;84.79
69543;SHT31;56762;49.494;11.768;2024-01-15T12:55:24;1.26;84.50
69543;SHT31;56762;49.494;11.768;2024-01-15T12:57:52;1.28;83.64
69543;SHT31;56762;49.494;11.768;2024-01-15T13:00:22;1.25;84.27
69543;SHT31;56762;49.494;11.768;2024-01-15T13:02:52;1.26;84.06
69543;SHT31;56762;49.494;11.768;2024-01-15T13:05:22;1.18;83.28
69543;SHT31;56762;49.494;11.768;2024-01-15T13:07:51;1.12;83.33
69543;SHT31;56762;49.494;11.768;2024-01-15T13:10:18;1.15;83.93
69543;SHT31;56762;49.494;11.768;2024-01-15T13:12:47;0.95;83.28
69543;SHT31;56762;49.494;11.768;2024-01-15T13:15:16;0.91;83.84
69543;SHT31;56762;49.494;11.768;2024-01-15T13:17:44;0.79;83.99
69543;SHT31;56762;49.494;11.768;2024-01-15T13:20:12;0.82;83.29
69543;SHT31;56762;49.494;11.768;2024-01-15T13:22:40;0.72;82.93
69543;SHT31;56762;49.494;11.768;2024-01-15T13:25:11;0.79;84.29
69543;SHT31;56762;49.494;11.768;2024-01-15T13:27:38;0.84;84.21
69543;SHT31;56762;49.494;11.768;2024-01-15T13:30:10;0.84;83.47
69543;SHT31;56762;49.494;11.768;2024-01-15T13:32:39;0.82;83.95
69543;SHT31;56762;49.494;11.768;2024-01-15T13:35:08;0.91;83.47
69543;SHT31;56762;49.494;11.768;2024-01-15T13:37:40;0.92;84.22
69543;SHT31;56762;49.494;11.768;2024-01-15T13:40:09;0.88;84.35
69543;SHT31;56762;49.494;11.768;2024-01-15T13:42:44;0.81;84.79
69543;SHT31;56762;49.494;11.768;2024-01-15T13:45:14;0.91;85.43
69543;SHT31;56762;49.494;11.768;2024-01-15T13:47:42;0.91;84.71
69543;SHT31;56762;49.494;11.768;2024-01-15T13:50:10;0.95;84.24
69543;SHT31;56762;49.494;11.768;2024-01-15T13:52:38;0.87;85.67
69543;SHT31;56762;49.494;11.768;2024-01-15T13:55:07;0.85;85.68
69543;SHT31;56762;49.494;11.768;2024-01-15T13:57:35;0.84;85.94
69543;SHT31;56762;49.494;11.768;2024-01-15T14:00:04;0.92;86.00
69543;SHT31;56762;49.494;11.768;2024-01-15T14:02:38;0.89;86.24
69543;SHT31;56762;49.494;11.768;2024-01-15T14:05:05;0.91;86.33
69543;SHT31;56762;49.494;11.768;2024-01-15T14:07:34;0.91;86.22
69543;SHT31;56762;49.494;11.768;2024-01-15T14:10:02;0.84;86.51
69543;SHT31;56762;49.494;11.768;2024-01-15T14:12:30;0.96;86.41
69543;SHT31;56762;49.494;11.768;2024-01-15T14:14:58;0.98;86.53
69543;SHT31;56762;49.494;11.768;2024-01-15T14:17:26;1.05;86.20
69543;SHT31;56762;49.494;11.768;2024-01-15T14:19:55;1.06;86.22
69543;SHT31;56762;49.494;11.768;2024-01-15T14:22:23;1.06;86.30
69543;SHT31;56762;49.494;11.768;2024-01-15T14:24:51;1.10;86.23
69543;SHT31;56762;49.494;11.768;2024-01-15T14:27:20;1.12;86.02
69543;SHT31;56762;49.494;11.768;2024-01-15T14:29:49;1.06;86.00
69543;SHT31;56762;49.494;11.768;2024-01-15T14:32:17;1.08;86.17
69543;SHT31;56762;49.494;11.768;2024-01-15T14:34:45;1.08;85.78
69543;SHT31;56762;49.494;11.768;2024-01-15T14:37:14;1.10;86.22
69543;SHT31;56762;49.494;11.768;2024-01-15T14:39:42;1.08;86.61
69543;SHT31;56762;49.494;11.768;2024-01-15T14:42:10;1.13;86.16
69543;SHT31;56762;49.494;11.768;2024-01-15T14:44:38;1.10;85.96
69543;SHT31;56762;49.494;11.768;2024-01-15T14:47:07;1.09;86.00
69543;SHT31;56762;49.494;11.768;2024-01-15T14:49:35;1.08;85.95
69543;SHT31;56762;49.494;11.768;2024-01-15T14:52:03;1.05;85.80
69543;SHT31;56762;49.494;11.768;2024-01-15T14:54:32;0.98;85.82
69543;SHT31;56762;49.494;11.768;2024-01-15T14:57:01;0.98;85.22
69543;SHT31;56762;49.494;11.768;2024-01-15T14:59:29;0.88;84.50
69543;SHT31;56762;49.494;11.768;2024-01-15T15:01:56;0.88;85.32
69543;SHT31;56762;49.494;11.768;2024-01-15T15:04:25;0.85;86.43
69543;SHT31;56762;49.494;11.768;2024-01-15T15:06:53;0.87;85.72
69543;SHT31;56762;49.494;11.768;2024-01-15T15:09:20;0.77;85.86
69543;SHT31;56762;49.494;11.768;2024-01-15T15:11:50;0.72;86.17
69543;SHT31;56762;49.494;11.768;2024-01-15T15:14:18;0.69;85.87
69543;SHT31;56762;49.494;11.768;2024-01-15T15:16:46;0.67;86.37
69543;SHT31;56762;49.494;11.768;2024-01-15T15:19:15;0.61;86.22
69543;SHT31;56762;49.494;11.768;2024-01-15T15:21:44;0.60;86.19
69543;SHT31;56762;49.494;11.768;2024-01-15T15:24:12;0.57;86.00
69543;SHT31;56762;49.494;11.768;2024-01-15T15:26:40;0.61;86.40
69543;SHT31;56762;49.494;11.768;2024-01-15T15:29:10;0.62;86.63
69543;SHT31;56762;49.494;11.768;2024-01-15T15:31:38;0.61;86.33
69543;SHT31;56762;49.494;11.768;2024-01-15T15:34:05;0.58;86.56
69543;SHT31;56762;49.494;11.768;2024-01-15T15:36:34;0.61;86.68